createdAt,value
2016-10-15T00:00:57.271Z,931.48
2016-10-15T00:02:07.836Z,931.5
2016-10-15T00:03:18.564Z,931.45
2016-10-15T00:04:29.161Z,931.48
2016-10-15T00:05:39.733Z,931.49
2016-10-15T00:07:09.519Z,931.47
2016-10-15T00:08:20.208Z,931.46
2016-10-15T00:09:30.887Z,931.47
2016-10-15T00:10:41.857Z,931.44
2016-10-15T00:11:52.435Z,931.44
2016-10-15T00:13:03.026Z,931.45
2016-10-15T00:14:14.141Z,931.43
2016-10-15T00:15:24.732Z,931.45
2016-10-15T00:16:35.300Z,931.4
2016-10-15T00:17:46.364Z,931.4
2016-10-15T00:18:57.431Z,931.39
2016-10-15T00:20:08.104Z,931.4
2016-10-15T00:21:18.682Z,931.45
2016-10-15T00:22:29.256Z,931.4
2016-10-15T00:23:39.829Z,931.45
2016-10-15T00:24:50.397Z,931.44
2016-10-15T00:26:01.064Z,931.42
2016-10-15T00:27:13.053Z,931.37
2016-10-15T00:28:24.024Z,931.4
2016-10-15T00:29:34.596Z,931.39
2016-10-15T00:30:45.176Z,931.36
2016-10-15T00:31:55.858Z,931.38
2016-10-15T00:33:06.928Z,931.34
2016-10-15T00:34:17.500Z,931.33
2016-10-15T00:35:28.079Z,931.32
2016-10-15T00:36:38.653Z,931.32
2016-10-15T00:37:49.219Z,931.31
2016-10-15T00:38:59.901Z,931.29
2016-10-15T00:40:10.473Z,931.27
2016-10-15T00:41:21.055Z,931.31
2016-10-15T00:42:31.633Z,931.33
2016-10-15T00:43:42.309Z,931.33
2016-10-15T00:44:52.884Z,931.34
2016-10-15T00:46:03.441Z,931.36
2016-10-15T00:47:14.447Z,931.36
2016-10-15T00:48:25.026Z,931.31
2016-10-15T00:49:35.686Z,931.38
2016-10-15T00:50:46.267Z,931.39
2016-10-15T00:51:57.237Z,931.34
2016-10-15T00:53:07.808Z,931.34
2016-10-15T00:54:18.384Z,931.31
2016-10-15T00:55:28.980Z,931.29
2016-10-15T00:56:39.954Z,931.28
2016-10-15T00:57:50.518Z,931.28
2016-10-15T00:59:01.094Z,931.26
2016-10-15T01:00:11.679Z,931.29
2016-10-15T01:01:22.369Z,931.23
2016-10-15T01:02:32.934Z,931.17
2016-10-15T01:03:43.515Z,931.13
2016-10-15T01:04:54.099Z,931.06
2016-10-15T01:06:04.752Z,931.01
2016-10-15T01:07:15.406Z,930.99
2016-10-15T01:08:25.986Z,930.96
2016-10-15T01:09:37.065Z,930.91
2016-10-15T01:10:47.638Z,930.88
2016-10-15T01:11:58.215Z,930.86
2016-10-15T01:13:08.887Z,930.83
2016-10-15T01:14:19.473Z,930.84
2016-10-15T01:15:30.062Z,930.9
2016-10-15T01:16:40.641Z,930.92
2016-10-15T01:17:51.220Z,930.92
2016-10-15T01:19:01.797Z,930.91
2016-10-15T01:20:12.368Z,930.83
2016-10-15T01:21:22.941Z,930.85
2016-10-15T01:22:33.516Z,930.87
2016-10-15T01:23:44.601Z,930.87
2016-10-15T01:24:55.281Z,930.85
2016-10-15T01:26:06.347Z,930.86
2016-10-15T01:27:17.312Z,930.87
2016-10-15T01:28:27.893Z,930.93
2016-10-15T01:29:38.469Z,930.95
2016-10-15T01:30:49.160Z,930.91
2016-10-15T01:31:59.741Z,930.9
2016-10-15T01:33:10.307Z,930.96
2016-10-15T01:34:20.887Z,930.98
2016-10-15T01:35:31.467Z,931.02
2016-10-15T01:36:42.147Z,931.05
2016-10-15T01:37:52.721Z,931.06
2016-10-15T01:39:03.299Z,931.02
2016-10-15T01:40:13.892Z,930.99
2016-10-15T01:41:24.472Z,931.03
2016-10-15T01:42:35.046Z,931.03
2016-10-15T01:43:45.628Z,931.02
2016-10-15T01:44:56.214Z,931.04
2016-10-15T01:46:06.803Z,931.05
2016-10-15T01:47:17.396Z,931.07
2016-10-15T01:48:28.070Z,931.03
2016-10-15T01:49:38.643Z,931.01
2016-10-15T01:50:49.219Z,930.92
2016-10-15T01:51:59.802Z,930.95
2016-10-15T01:53:10.383Z,930.93
2016-10-15T01:54:21.466Z,930.88
2016-10-15T01:55:32.039Z,930.93
2016-10-15T01:56:42.613Z,930.9
2016-10-15T01:57:53.194Z,930.87
2016-10-15T01:59:03.775Z,930.89
2016-10-15T02:00:14.461Z,930.84
2016-10-15T02:01:25.043Z,930.85
2016-10-15T02:02:36.121Z,930.86
2016-10-15T02:03:46.697Z,930.89
2016-10-15T02:04:57.276Z,930.9
2016-10-15T02:06:07.948Z,930.95
2016-10-15T02:07:18.523Z,930.96
2016-10-15T02:08:29.102Z,930.96
2016-10-15T02:09:39.664Z,930.97
2016-10-15T02:11:00.517Z,930.95
2016-10-15T02:12:11.248Z,930.94
2016-10-15T02:13:22.841Z,930.92
2016-10-15T02:14:33.809Z,930.93
2016-10-15T02:15:44.778Z,930.96
2016-10-15T02:16:55.358Z,930.97
2016-10-15T02:18:05.935Z,931.01
2016-10-15T02:19:16.514Z,931
2016-10-15T02:20:27.092Z,930.97
2016-10-15T02:21:37.674Z,930.99
2016-10-15T02:22:48.349Z,930.95
2016-10-15T02:23:58.930Z,931.02
2016-10-15T02:25:09.507Z,931.02
2016-10-15T02:26:20.095Z,931
2016-10-15T02:27:30.667Z,931.02
2016-10-15T02:28:41.347Z,931.03
2016-10-15T02:29:51.941Z,930.98
2016-10-15T02:31:02.514Z,931
2016-10-15T02:32:13.091Z,930.98
2016-10-15T02:33:23.669Z,930.92
2016-10-15T02:34:34.356Z,930.93
2016-10-15T02:35:44.928Z,930.92
2016-10-15T02:36:55.503Z,930.88
2016-10-15T02:38:06.082Z,930.85
2016-10-15T02:39:16.658Z,930.83
2016-10-15T02:40:27.235Z,930.8
2016-10-15T02:41:37.808Z,930.82
2016-10-15T02:42:48.383Z,930.78
2016-10-15T02:43:58.963Z,930.79
2016-10-15T02:45:10.026Z,930.75
2016-10-15T02:46:20.700Z,930.75
2016-10-15T02:47:31.277Z,930.76
2016-10-15T02:48:41.873Z,930.75
2016-10-15T02:49:52.437Z,930.71
2016-10-15T02:51:03.398Z,930.7
2016-10-15T02:52:14.071Z,930.67
2016-10-15T02:53:24.651Z,930.67
2016-10-15T02:54:35.237Z,930.73
2016-10-15T02:55:45.817Z,930.72
2016-10-15T02:56:56.382Z,930.67
2016-10-15T02:58:07.054Z,930.68
2016-10-15T02:59:17.612Z,930.6
2016-10-15T03:00:28.194Z,930.58
2016-10-15T03:01:39.169Z,930.55
2016-10-15T03:02:49.737Z,930.57
2016-10-15T03:04:00.319Z,930.56
2016-10-15T03:05:10.934Z,930.54
2016-10-15T03:06:21.536Z,930.56
2016-10-15T03:07:32.132Z,930.51
2016-10-15T03:08:42.701Z,930.51
2016-10-15T03:09:53.375Z,930.54
2016-10-15T03:11:03.947Z,930.52
2016-10-15T03:12:14.822Z,930.54
2016-10-15T03:13:25.396Z,930.59
2016-10-15T03:14:35.972Z,930.57
2016-10-15T03:15:46.651Z,930.61
2016-10-15T03:16:57.240Z,930.56
2016-10-15T03:18:07.813Z,930.59
2016-10-15T03:19:18.381Z,930.54
2016-10-15T03:20:28.985Z,930.52
2016-10-15T03:21:39.679Z,930.53
2016-10-15T03:22:50.259Z,930.52
2016-10-15T03:24:00.839Z,930.54
2016-10-15T03:25:11.406Z,930.57
2016-10-15T03:26:21.976Z,930.57
2016-10-15T03:27:32.549Z,930.61
2016-10-15T03:28:43.123Z,930.49
2016-10-15T03:29:53.703Z,930.57
2016-10-15T03:31:04.275Z,930.52
2016-10-15T03:32:14.847Z,930.59
2016-10-15T03:33:25.517Z,930.55
2016-10-15T03:34:36.102Z,930.57
2016-10-15T03:35:47.072Z,930.57
2016-10-15T03:36:57.658Z,930.48
2016-10-15T03:38:08.239Z,930.48
2016-10-15T03:39:18.947Z,930.44
2016-10-15T03:40:29.527Z,930.4
2016-10-15T03:41:40.092Z,930.43
2016-10-15T03:42:50.677Z,930.45
2016-10-15T03:44:01.249Z,930.44
2016-10-15T03:45:11.919Z,930.42
2016-10-15T03:46:22.491Z,930.46
2016-10-15T03:47:33.065Z,930.43
2016-10-15T03:48:43.641Z,930.4
2016-10-15T03:49:54.229Z,930.36
2016-10-15T03:51:04.812Z,930.36
2016-10-15T03:52:15.390Z,930.24
2016-10-15T03:53:25.967Z,930.2
2016-10-15T03:54:36.548Z,930.05
2016-10-15T03:55:47.122Z,930.16
2016-10-15T03:56:57.796Z,930.14
2016-10-15T03:58:08.372Z,930.1
2016-10-15T03:59:18.950Z,930.12
2016-10-15T04:00:29.510Z,930.03
2016-10-15T04:01:40.044Z,930.19
2016-10-15T04:02:50.692Z,930.24
2016-10-15T04:04:01.751Z,930.08
2016-10-15T04:05:12.230Z,930.09
2016-10-15T04:06:22.798Z,930.06
2016-10-15T04:07:33.735Z,930.09
2016-10-15T04:08:44.391Z,930.04
2016-10-15T04:09:54.968Z,930.01
2016-10-15T04:11:05.895Z,930
2016-10-15T04:12:16.449Z,929.99
2016-10-15T04:13:26.968Z,929.95
2016-10-15T04:14:37.860Z,929.99
2016-10-15T04:15:48.413Z,929.94
2016-10-15T04:16:58.955Z,929.9
2016-10-15T04:18:09.486Z,929.89
2016-10-15T04:19:20.090Z,929.91
2016-10-15T04:20:30.694Z,929.92
2016-10-15T04:21:41.213Z,929.9
2016-10-15T04:22:51.800Z,929.86
2016-10-15T04:24:02.347Z,929.86
2016-10-15T04:25:12.920Z,929.87
2016-10-15T04:26:23.487Z,929.85
2016-10-15T04:27:34.560Z,929.9
2016-10-15T04:28:45.117Z,929.84
2016-10-15T04:29:55.643Z,929.9
2016-10-15T04:31:06.216Z,929.84
2016-10-15T04:32:17.176Z,929.86
2016-10-15T04:33:27.684Z,929.86
2016-10-15T04:34:38.190Z,929.83
2016-10-15T04:35:48.728Z,929.81
2016-10-15T04:36:59.220Z,929.83
2016-10-15T04:38:09.819Z,929.8
2016-10-15T04:39:20.378Z,929.82
2016-10-15T04:40:30.925Z,929.78
2016-10-15T04:41:41.462Z,929.71
2016-10-15T04:42:51.997Z,929.74
2016-10-15T04:44:03.033Z,929.78
2016-10-15T04:45:13.664Z,929.77
2016-10-15T04:46:24.190Z,929.71
2016-10-15T04:47:34.746Z,929.76
2016-10-15T04:48:45.235Z,929.74
2016-10-15T04:49:55.757Z,929.77
2016-10-15T04:51:06.877Z,929.74
2016-10-15T04:52:17.416Z,929.72
2016-10-15T04:53:27.934Z,929.67
2016-10-15T04:54:38.471Z,929.68
2016-10-15T04:55:49.139Z,929.68
2016-10-15T04:56:59.670Z,929.67
2016-10-15T04:58:10.222Z,929.67
2016-10-15T04:59:20.736Z,929.66
2016-10-15T05:00:31.253Z,929.68
2016-10-15T05:01:41.853Z,929.69
2016-10-15T05:02:52.359Z,929.71
2016-10-15T05:04:03.431Z,929.72
2016-10-15T05:05:13.956Z,929.71
2016-10-15T05:06:24.496Z,929.69
2016-10-15T05:07:34.996Z,929.73
2016-10-15T05:08:45.551Z,929.7
2016-10-15T05:09:56.088Z,929.75
2016-10-15T05:11:06.627Z,929.7
2016-10-15T05:12:17.201Z,929.7
2016-10-15T05:13:27.873Z,929.71
2016-10-15T05:14:38.397Z,929.7
2016-10-15T05:15:48.943Z,929.68
2016-10-15T05:16:59.477Z,929.61
2016-10-15T05:18:09.953Z,929.63
2016-10-15T05:19:21.109Z,929.67
2016-10-15T05:20:31.653Z,929.69
2016-10-15T05:21:42.207Z,929.69
2016-10-15T05:22:52.770Z,929.7
2016-10-15T05:24:03.313Z,929.73
2016-10-15T05:25:13.990Z,929.74
2016-10-15T05:26:24.505Z,929.77
2016-10-15T05:27:35.045Z,929.75
2016-10-15T05:28:45.601Z,929.72
2016-10-15T05:29:56.159Z,929.72
2016-10-15T05:31:06.687Z,929.62
2016-10-15T05:32:17.260Z,929.69
2016-10-15T05:33:27.817Z,929.62
2016-10-15T05:34:38.343Z,929.65
2016-10-15T05:35:48.885Z,929.61
2016-10-15T05:36:59.580Z,929.62
2016-10-15T05:38:10.119Z,929.56
2016-10-15T05:39:20.632Z,929.5
2016-10-15T05:40:31.188Z,929.48
2016-10-15T05:41:41.729Z,929.49
2016-10-15T05:42:52.366Z,929.48
2016-10-15T05:44:02.872Z,929.4
2016-10-15T05:45:13.410Z,929.42
2016-10-15T05:46:23.969Z,929.43
2016-10-15T05:47:34.538Z,929.42
2016-10-15T05:48:45.182Z,929.41
2016-10-15T05:49:55.724Z,929.37
2016-10-15T05:51:06.285Z,929.44
2016-10-15T05:52:16.847Z,929.46
2016-10-15T05:53:27.368Z,929.45
2016-10-15T05:54:37.840Z,929.42
2016-10-15T05:55:48.427Z,929.43
2016-10-15T05:56:58.985Z,929.47
2016-10-15T05:58:09.513Z,929.43
2016-10-15T05:59:20.078Z,929.39
2016-10-15T06:00:30.682Z,929.4
2016-10-15T06:01:41.251Z,929.38
2016-10-15T06:02:51.773Z,929.45
2016-10-15T06:04:02.289Z,929.48
2016-10-15T06:05:12.780Z,929.48
2016-10-15T06:06:23.406Z,929.5
2016-10-15T06:07:33.943Z,929.43
2016-10-15T06:08:44.857Z,929.42
2016-10-15T06:09:55.427Z,929.42
2016-10-15T06:11:05.983Z,929.41
2016-10-15T06:12:16.591Z,929.45
2016-10-15T06:13:27.144Z,929.38
2016-10-15T06:14:37.674Z,929.45
2016-10-15T06:15:48.258Z,929.46
2016-10-15T06:16:58.779Z,929.49
2016-10-15T06:18:09.336Z,929.52
2016-10-15T06:19:19.831Z,929.56
2016-10-15T06:20:30.762Z,929.57
2016-10-15T06:21:41.256Z,929.54
2016-10-15T06:22:51.814Z,929.55
2016-10-15T06:24:02.876Z,929.56
2016-10-15T06:25:13.405Z,929.55
2016-10-15T06:26:23.907Z,929.57
2016-10-15T06:27:34.425Z,929.53
2016-10-15T06:28:44.961Z,929.51
2016-10-15T06:29:55.573Z,929.44
2016-10-15T06:31:06.104Z,929.44
2016-10-15T06:32:16.634Z,929.39
2016-10-15T06:33:27.127Z,929.44
2016-10-15T06:34:37.655Z,929.38
2016-10-15T06:35:48.327Z,929.39
2016-10-15T06:36:59.185Z,929.4
2016-10-15T06:38:09.723Z,929.37
2016-10-15T06:39:20.251Z,929.39
2016-10-15T06:40:30.788Z,929.41
2016-10-15T06:41:41.312Z,929.44
2016-10-15T06:42:51.844Z,929.45
2016-10-15T06:44:02.401Z,929.47
2016-10-15T06:45:12.939Z,929.45
2016-10-15T06:46:23.441Z,929.46
2016-10-15T06:47:34.053Z,929.49
2016-10-15T06:48:44.718Z,929.53
2016-10-15T06:49:55.242Z,929.55
2016-10-15T06:51:05.740Z,929.59
2016-10-15T06:52:16.295Z,929.62
2016-10-15T06:53:26.924Z,929.65
2016-10-15T06:54:37.474Z,929.64
2016-10-15T06:55:48.030Z,929.64
2016-10-15T06:56:58.577Z,929.65
2016-10-15T06:58:09.155Z,929.66
2016-10-15T06:59:19.711Z,929.71
2016-10-15T07:00:30.614Z,929.66
2016-10-15T07:01:41.106Z,929.75
2016-10-15T07:02:51.639Z,929.74
2016-10-15T07:04:02.189Z,929.77
2016-10-15T07:05:12.796Z,929.78
2016-10-15T07:06:23.309Z,929.78
2016-10-15T07:07:34.283Z,929.76
2016-10-15T07:08:44.769Z,929.78
2016-10-15T07:09:55.293Z,929.77
2016-10-15T07:11:05.866Z,929.78
2016-10-15T07:12:16.407Z,929.74
2016-10-15T07:13:26.911Z,929.74
2016-10-15T07:14:37.388Z,929.74
2016-10-15T07:15:47.907Z,929.75
2016-10-15T07:16:58.559Z,929.74
2016-10-15T07:18:09.620Z,929.8
2016-10-15T07:19:20.191Z,929.8
2016-10-15T07:20:30.758Z,929.79
2016-10-15T07:21:41.841Z,929.83
2016-10-15T07:22:52.916Z,929.8
2016-10-15T07:24:03.487Z,929.79
2016-10-15T07:25:14.065Z,929.78
2016-10-15T07:26:24.649Z,929.87
2016-10-15T07:27:35.217Z,929.84
2016-10-15T07:28:45.890Z,929.86
2016-10-15T07:29:56.484Z,929.84
2016-10-15T07:31:07.069Z,929.85
2016-10-15T07:32:17.656Z,929.83
2016-10-15T07:33:28.242Z,929.86
2016-10-15T07:34:38.917Z,929.88
2016-10-15T07:35:49.490Z,929.89
2016-10-15T07:37:00.067Z,929.9
2016-10-15T07:38:10.649Z,929.96
2016-10-15T07:39:21.216Z,929.9
2016-10-15T07:40:32.283Z,929.91
2016-10-15T07:41:42.853Z,929.91
2016-10-15T07:42:53.966Z,929.94
2016-10-15T07:44:04.549Z,929.97
2016-10-15T07:45:15.146Z,929.94
2016-10-15T07:46:25.717Z,929.95
2016-10-15T07:47:36.287Z,929.94
2016-10-15T07:48:46.862Z,929.95
2016-10-15T07:49:57.435Z,930
2016-10-15T07:51:07.981Z,929.96
2016-10-15T07:52:18.612Z,929.97
2016-10-15T07:53:29.117Z,930.01
2016-10-15T07:54:39.644Z,930.04
2016-10-15T07:55:50.195Z,930.09
2016-10-15T07:57:00.694Z,930.09
2016-10-15T07:58:11.342Z,930.14
2016-10-15T07:59:21.887Z,930.16
2016-10-15T08:00:32.415Z,930.15
2016-10-15T08:01:42.936Z,930.16
2016-10-15T08:02:53.453Z,930.19
2016-10-15T08:04:04.125Z,930.25
2016-10-15T08:05:14.664Z,930.21
2016-10-15T08:06:25.193Z,930.26
2016-10-15T08:07:35.719Z,930.3
2016-10-15T08:08:46.309Z,930.28
2016-10-15T08:09:56.834Z,930.35
2016-10-15T08:11:07.344Z,930.3
2016-10-15T08:12:17.893Z,930.23
2016-10-15T08:13:28.948Z,930.24
2016-10-15T08:14:39.865Z,930.23
2016-10-15T08:15:50.512Z,930.22
2016-10-15T08:17:01.029Z,930.17
2016-10-15T08:18:11.864Z,930.14
2016-10-15T08:19:22.404Z,930.16
2016-10-15T08:20:32.930Z,930.12
2016-10-15T08:21:44.097Z,930.13
2016-10-15T08:22:54.615Z,930.15
2016-10-15T08:24:05.077Z,930.19
2016-10-15T08:25:15.534Z,930.22
2016-10-15T08:26:25.979Z,930.23
2016-10-15T08:27:36.533Z,930.16
2016-10-15T08:28:46.992Z,930.15
2016-10-15T08:29:57.443Z,930.13
2016-10-15T08:31:07.909Z,930.09
2016-10-15T08:32:18.353Z,930.09
2016-10-15T08:33:28.915Z,930.12
2016-10-15T08:34:39.378Z,930.13
2016-10-15T08:35:49.839Z,930.14
2016-10-15T08:37:00.291Z,930.12
2016-10-15T08:38:11.219Z,930.1
2016-10-15T08:39:21.769Z,930.13
2016-10-15T08:40:32.216Z,930.06
2016-10-15T08:41:42.734Z,930.06
2016-10-15T08:42:53.183Z,930.02
2016-10-15T08:44:03.638Z,929.99
2016-10-15T08:45:14.101Z,929.98
2016-10-15T08:46:24.559Z,929.98
2016-10-15T08:47:35.010Z,929.94
2016-10-15T08:48:45.475Z,929.98
2016-10-15T08:49:55.929Z,929.94
2016-10-15T08:51:06.482Z,929.98
2016-10-15T08:52:17.335Z,930.01
2016-10-15T08:53:27.791Z,929.99
2016-10-15T08:54:38.244Z,930.03
2016-10-15T08:55:48.695Z,930.04
2016-10-15T08:56:59.253Z,930.04
2016-10-15T08:58:09.713Z,930.08
2016-10-15T08:59:20.167Z,930.07
2016-10-15T09:00:30.617Z,930.11
2016-10-15T09:01:41.064Z,930.16
2016-10-15T09:02:51.634Z,930.17
2016-10-15T09:04:02.100Z,930.2
2016-10-15T09:05:12.563Z,930.25
2016-10-15T09:06:23.410Z,930.23
2016-10-15T09:07:33.873Z,930.24
2016-10-15T09:08:44.319Z,930.26
2016-10-15T09:09:54.781Z,930.22
2016-10-15T09:11:05.225Z,930.22
2016-10-15T09:12:15.683Z,930.28
2016-10-15T09:13:26.141Z,930.32
2016-10-15T09:14:36.695Z,930.27
2016-10-15T09:15:47.157Z,930.26
2016-10-15T09:16:58.005Z,930.3
2016-10-15T09:18:08.444Z,930.28
2016-10-15T09:19:18.892Z,930.3
2016-10-15T09:20:29.451Z,930.36
2016-10-15T09:21:39.904Z,930.4
2016-10-15T09:22:50.362Z,930.44
2016-10-15T09:24:00.833Z,930.51
2016-10-15T09:25:11.283Z,930.56
2016-10-15T09:26:22.221Z,930.59
2016-10-15T09:27:32.680Z,930.6
2016-10-15T09:28:43.134Z,930.63
2016-10-15T09:29:53.582Z,930.64
2016-10-15T09:31:04.514Z,930.67
2016-10-15T09:32:14.961Z,930.65
2016-10-15T09:33:25.430Z,930.67
2016-10-15T09:34:35.892Z,930.68
2016-10-15T09:35:46.351Z,930.67
2016-10-15T09:36:56.806Z,930.69
2016-10-15T09:38:07.748Z,930.79
2016-10-15T09:39:18.198Z,930.77
2016-10-15T09:40:28.675Z,930.85
2016-10-15T09:41:39.131Z,930.92
2016-10-15T09:42:49.641Z,930.96
2016-10-15T09:44:00.200Z,930.99
2016-10-15T09:45:10.656Z,931.05
2016-10-15T09:46:21.121Z,931.06
2016-10-15T09:47:31.585Z,931.14
2016-10-15T09:48:42.043Z,930.99
2016-10-15T09:49:52.982Z,931.03
2016-10-15T09:51:03.443Z,931.18
2016-10-15T09:52:14.291Z,931.03
2016-10-15T09:53:24.743Z,930.97
2016-10-15T09:54:35.579Z,930.98
2016-10-15T09:55:46.039Z,930.97
2016-10-15T09:56:56.503Z,930.99
2016-10-15T09:58:06.954Z,930.87
2016-10-15T09:59:17.419Z,930.95
2016-10-15T10:00:27.888Z,931.05
2016-10-15T10:01:38.928Z,931.01
2016-10-15T10:02:49.429Z,930.96
2016-10-15T10:03:59.914Z,931.16
2016-10-15T10:05:10.366Z,931.2
2016-10-15T10:06:20.819Z,931.39
2016-10-15T10:07:31.369Z,931.26
2016-10-15T10:08:41.922Z,931.18
2016-10-15T10:09:52.413Z,931.34
2016-10-15T10:11:02.911Z,931.64
2016-10-15T10:12:13.399Z,931.65
2016-10-15T10:13:23.892Z,931.58
2016-10-15T10:14:34.414Z,931.66
2016-10-15T10:15:44.937Z,931.62
2016-10-15T10:16:55.439Z,931.59
2016-10-15T10:18:05.955Z,931.66
2016-10-15T10:19:16.570Z,931.6
2016-10-15T10:20:27.030Z,931.52
2016-10-15T10:21:37.508Z,931.46
2016-10-15T10:22:48.047Z,931.54
2016-10-15T10:23:58.551Z,931.5
2016-10-15T10:25:09.161Z,931.38
2016-10-15T10:26:19.648Z,931.29
2016-10-15T10:27:30.159Z,931.17
2016-10-15T10:28:40.617Z,931.13
2016-10-15T10:29:51.075Z,931.11
2016-10-15T10:31:01.708Z,931.1
2016-10-15T10:32:12.190Z,931.21
2016-10-15T10:33:22.699Z,931.18
2016-10-15T10:34:33.202Z,931.1
2016-10-15T10:35:43.755Z,931.23
2016-10-15T10:36:54.406Z,931.39
2016-10-15T10:38:04.932Z,931.35
2016-10-15T10:39:15.456Z,931.44
2016-10-15T10:40:25.993Z,931.38
2016-10-15T10:41:36.523Z,931.49
2016-10-15T10:42:47.663Z,931.56
2016-10-15T10:43:58.718Z,931.44
2016-10-15T10:45:09.273Z,931.44
2016-10-15T10:46:19.828Z,931.33
2016-10-15T10:47:30.344Z,931.32
2016-10-15T10:48:41.481Z,931.32
2016-10-15T10:49:52.897Z,931.22
2016-10-15T10:51:03.423Z,931.1
2016-10-15T10:52:15.507Z,931.15
2016-10-15T10:53:26.013Z,931.11
2016-10-15T10:54:36.571Z,931.2
2016-10-15T10:55:47.510Z,931.2
2016-10-15T10:56:58.047Z,931.36
2016-10-15T10:58:08.612Z,931.43
2016-10-15T10:59:19.145Z,931.35
2016-10-15T11:00:29.821Z,931.25
2016-10-15T11:01:40.367Z,931.27
2016-10-15T11:02:50.925Z,931.64
2016-10-15T11:04:01.478Z,932.07
2016-10-15T11:05:12.073Z,932.45
2016-10-15T11:06:22.710Z,932.92
2016-10-15T11:07:33.261Z,932.44
2016-10-15T11:08:43.754Z,932.71
2016-10-15T11:09:54.272Z,932.35
2016-10-15T11:11:04.727Z,931.83
2016-10-15T11:12:15.294Z,932.43
2016-10-15T11:13:25.798Z,932.66
2016-10-15T11:14:36.344Z,932.89
2016-10-15T11:15:46.957Z,932.6
2016-10-15T11:16:57.478Z,932.57
2016-10-15T11:18:07.956Z,932.93
2016-10-15T11:19:18.538Z,932.19
2016-10-15T11:20:29.044Z,932.96
2016-10-15T11:21:39.535Z,932.78
2016-10-15T11:22:50.658Z,933.23
2016-10-15T11:24:01.217Z,932.71
2016-10-15T11:25:11.760Z,933.56
2016-10-15T11:26:22.295Z,933.79
2016-10-15T11:27:32.842Z,932.98
2016-10-15T11:28:43.409Z,932.91
2016-10-15T11:29:54.033Z,932.61
2016-10-15T11:31:04.517Z,933.48
2016-10-15T11:32:14.978Z,933.34
2016-10-15T11:33:25.484Z,932.94
2016-10-15T11:34:35.996Z,932.51
2016-10-15T11:35:46.520Z,932.98
2016-10-15T11:36:57.038Z,933.65
2016-10-15T11:38:08.374Z,934.08
2016-10-15T11:39:18.887Z,934.05
2016-10-15T11:40:29.380Z,933.57
2016-10-15T11:41:40.020Z,933.87
2016-10-15T11:42:50.537Z,934.38
2016-10-15T11:44:01.044Z,934.2
2016-10-15T11:45:11.541Z,934.45
2016-10-15T11:46:22.053Z,932.62
2016-10-15T11:47:32.650Z,932.76
2016-10-15T11:48:43.132Z,935.39
2016-10-15T11:49:53.668Z,934.93
2016-10-15T11:51:04.167Z,934.61
2016-10-15T11:52:14.658Z,934.47
2016-10-15T11:53:25.224Z,934.24
2016-10-15T11:54:35.719Z,934.4
2016-10-15T11:55:46.227Z,934.58
2016-10-15T11:56:56.735Z,932.95
2016-10-15T11:58:07.201Z,934.49
2016-10-15T11:59:17.801Z,935.62
2016-10-15T12:00:28.380Z,933.12
2016-10-15T12:01:39.284Z,934.99
2016-10-15T12:02:49.819Z,933.54
2016-10-15T12:04:00.307Z,936.75
2016-10-15T12:05:10.802Z,937.94
2016-10-15T12:06:21.806Z,936.89
2016-10-15T12:07:32.303Z,939.52
2016-10-15T12:08:42.840Z,939.11
2016-10-15T12:09:53.399Z,940.14
2016-10-15T12:11:04.017Z,939
2016-10-15T12:12:14.513Z,939.17
2016-10-15T12:13:25.018Z,939.07
2016-10-15T12:14:35.504Z,939.13
2016-10-15T12:15:46.023Z,939.51
2016-10-15T12:16:56.621Z,940.27
2016-10-15T12:18:07.109Z,940.73
2016-10-15T12:19:17.576Z,940.45
2016-10-15T12:20:28.063Z,940.7
2016-10-15T12:21:38.630Z,939.65
2016-10-15T12:22:49.240Z,941.18
2016-10-15T12:23:59.738Z,941.61
2016-10-15T12:25:10.263Z,942.44
2016-10-15T12:26:20.803Z,941.26
2016-10-15T12:27:31.291Z,941.95
2016-10-15T12:28:41.810Z,939.21
2016-10-15T12:29:52.335Z,940.71
2016-10-15T12:31:02.879Z,938.84
2016-10-15T12:32:13.380Z,938.6
2016-10-15T12:33:23.922Z,937.06
2016-10-15T12:34:34.543Z,936.69
2016-10-15T12:35:45.062Z,937.67
2016-10-15T12:36:55.580Z,936
2016-10-15T12:38:06.473Z,933.5
2016-10-15T12:39:16.942Z,933.84
2016-10-15T12:40:27.552Z,938.5
2016-10-15T12:41:38.059Z,937.84
2016-10-15T12:42:48.531Z,941.21
2016-10-15T12:43:59.015Z,933.68
2016-10-15T12:45:09.919Z,942.08
2016-10-15T12:46:20.503Z,942.43
2016-10-15T12:47:31.034Z,945.71
2016-10-15T12:48:41.510Z,943.1
2016-10-15T12:49:52.022Z,943.45
2016-10-15T12:51:02.513Z,943.29
2016-10-15T12:52:13.040Z,934.79
2016-10-15T12:53:23.599Z,934.41
2016-10-15T12:54:34.062Z,942.59
2016-10-15T12:55:44.562Z,943.18
2016-10-15T12:56:55.069Z,944.03
2016-10-15T12:58:05.704Z,943.98
2016-10-15T12:59:16.217Z,938.34
2016-10-15T13:00:27.239Z,941.21
2016-10-15T13:01:38.647Z,940.89
2016-10-15T13:02:49.135Z,939.56
2016-10-15T13:03:59.784Z,938.48
2016-10-15T13:05:10.319Z,937.96
2016-10-15T13:06:20.868Z,937.03
2016-10-15T13:07:31.367Z,935.46
2016-10-15T13:08:41.899Z,934.84
2016-10-15T13:09:52.386Z,934.27
2016-10-15T13:11:02.900Z,934.89
2016-10-15T13:12:13.389Z,934.95
2016-10-15T13:13:23.871Z,934.74
2016-10-15T13:14:34.374Z,934.48
2016-10-15T13:15:45.826Z,933.79
2016-10-15T13:16:56.390Z,933.52
2016-10-15T13:18:06.979Z,933.56
2016-10-15T13:19:17.981Z,933.29
2016-10-15T13:20:28.489Z,932.96
2016-10-15T13:21:39.201Z,932.77
2016-10-15T13:22:49.763Z,932.37
2016-10-15T13:24:00.305Z,932.44
2016-10-15T13:25:10.825Z,932.4
2016-10-15T13:26:21.389Z,932.77
2016-10-15T13:27:32.031Z,932.65
2016-10-15T13:28:42.573Z,932.6
2016-10-15T13:29:53.507Z,932.63
2016-10-15T13:31:04.109Z,932.64
2016-10-15T13:32:14.679Z,932.52
2016-10-15T13:33:25.205Z,932.54
2016-10-15T13:34:35.800Z,932.41
2016-10-15T13:35:46.383Z,932.21
2016-10-15T13:36:56.929Z,932.22
2016-10-15T13:38:07.529Z,932.14
2016-10-15T13:39:18.185Z,932.09
2016-10-15T13:40:28.718Z,932.02
2016-10-15T13:41:39.250Z,931.96
2016-10-15T13:42:50.295Z,931.77
2016-10-15T13:44:00.840Z,931.71
2016-10-15T13:45:11.474Z,931.73
2016-10-15T13:46:22.033Z,931.75
2016-10-15T13:47:32.576Z,931.77
2016-10-15T13:48:43.139Z,931.76
2016-10-15T13:49:53.692Z,931.58
2016-10-15T13:51:04.279Z,931.6
2016-10-15T13:52:14.775Z,931.57
2016-10-15T13:53:25.264Z,931.65
2016-10-15T13:54:35.752Z,931.72
2016-10-15T13:55:46.328Z,931.18
2016-10-15T13:56:56.843Z,931.45
2016-10-15T13:58:07.343Z,931.46
2016-10-15T13:59:17.863Z,931.46
2016-10-15T14:00:28.383Z,931.34
2016-10-15T14:01:38.892Z,931.31
2016-10-15T14:02:49.477Z,931.28
2016-10-15T14:04:00.389Z,931.23
2016-10-15T14:05:11.362Z,931.26
2016-10-15T14:06:21.895Z,931.25
2016-10-15T14:07:32.432Z,931.27
2016-10-15T14:08:43.028Z,931.31
2016-10-15T14:09:53.507Z,931.22
2016-10-15T14:11:03.987Z,931.13
2016-10-15T14:12:14.460Z,931.07
2016-10-15T14:13:24.994Z,931.03
2016-10-15T14:14:35.580Z,930.99
2016-10-15T14:15:46.475Z,931.04
2016-10-15T14:16:56.941Z,930.96
2016-10-15T14:18:07.453Z,930.92
2016-10-15T14:19:17.963Z,930.89
2016-10-15T14:20:28.965Z,930.81
2016-10-15T14:21:39.533Z,930.66
2016-10-15T14:22:50.097Z,930.75
2016-10-15T14:24:01.038Z,930.78
2016-10-15T14:25:12.073Z,930.91
2016-10-15T14:26:22.744Z,930.91
2016-10-15T14:27:33.406Z,930.8
2016-10-15T14:28:43.895Z,930.89
2016-10-15T14:29:54.485Z,930.92
2016-10-15T14:31:05.055Z,930.89
2016-10-15T14:32:15.620Z,930.81
2016-10-15T14:33:26.308Z,930.76
2016-10-15T14:34:37.232Z,930.69
2016-10-15T14:35:47.805Z,930.61
2016-10-15T14:36:58.359Z,930.61
2016-10-15T14:38:09.444Z,930.64
2016-10-15T14:39:19.987Z,930.59
2016-10-15T14:40:30.546Z,930.54
2016-10-15T14:41:41.047Z,930.58
2016-10-15T14:42:51.574Z,930.61
2016-10-15T14:44:02.201Z,930.47
2016-10-15T14:45:12.716Z,930.29